Time;durP1;ratioP1;P1;durP2;ratioP2;P2;SDS_P1;SDS_P2;PMS_P1;PMS_P2;Temp;Humidity;BMP_temperature;BMP_pressure;BME280_temperature;BME280_humidity;BME280_pressure;Samples;Min_cycle;Max_cycle;Signal;HPM_P1;HPM_P2
2022/05/23 00:01:24;;;;;;;21.38;5.15;;;;;;;;;;4996187;28;20034;-47
2022/05/23 00:03:51;;;;;;;26.75;5.00;;;;;;;;;;5013559;28;20026;-45
2022/05/23 00:06:19;;;;;;;30.08;5.63;;;;;;;;;;4996933;28;20072;-53
2022/05/23 00:08:47;;;;;;;27.70;5.22;;;;;;;;;;5013966;28;20025;-51
2022/05/23 00:11:15;;;;;;;27.95;5.95;;;;;;;;;;5014087;28;20061;-47
2022/05/23 00:13:42;;;;;;;30.02;5.15;;;;;;;;;;5013849;28;20121;-50
2022/05/23 00:16:10;;;;;;;30.70;6.25;;;;;;;;;;5013843;28;20029;-50
2022/05/23 00:18:36;;;;;;;29.95;6.80;;;;;;;;;;5013306;28;20029;-56
2022/05/23 00:21:04;;;;;;;47.33;11.13;;;;;;;;;;5012969;28;20525;-50
2022/05/23 00:23:30;;;;;;;39.10;10.50;;;;;;;;;;5011910;28;20392;-53
2022/05/23 00:25:58;;;;;;;37.83;9.10;;;;;;;;;;5012438;28;20025;-52
2022/05/23 00:28:25;;;;;;;38.40;10.32;;;;;;;;;;5009409;28;20017;-50
2022/05/23 00:30:51;;;;;;;32.22;10.55;;;;;;;;;;5012162;28;20136;-54
2022/05/23 00:36:04;;;;;;;37.65;10.23;;;;;;;;;;5014804;28;20108;-52
2022/05/23 00:38:31;;;;;;;44.35;10.10;;;;;;;;;;5012167;28;20101;-53
2022/05/23 00:43:55;;;;;;;42.30;10.52;;;;;;;;;;5008275;28;20056;-53
2022/05/23 00:46:22;;;;;;;41.97;11.07;;;;;;;;;;5010754;28;20022;-54
2022/05/23 00:48:49;;;;;;;40.38;10.35;;;;;;;;;;5012255;28;20068;-51
2022/05/23 00:51:16;;;;;;;36.38;10.95;;;;;;;;;;5013425;28;20022;-46
2022/05/23 00:53:54;;;;;;;45.58;11.30;;;;;;;;;;5012760;28;20444;-55
2022/05/23 00:56:23;;;;;;;46.72;14.02;;;;;;;;;;5013048;28;20037;-53
2022/05/23 00:58:52;;;;;;;59.58;14.95;;;;;;;;;;5013426;28;20129;-49
2022/05/23 01:01:21;;;;;;;67.43;17.65;;;;;;;;;;5012204;28;20041;-52
2022/05/23 01:03:48;;;;;;;66.28;18.20;;;;;;;;;;5013236;28;20030;-51
2022/05/23 01:06:15;;;;;;;76.82;21.77;;;;;;;;;;5013157;28;20060;-52
2022/05/23 01:08:42;;;;;;;84.78;22.77;;;;;;;;;;5012117;28;20069;-53
2022/05/23 01:11:10;;;;;;;83.75;23.08;;;;;;;;;;5013486;28;20022;-50
2022/05/23 01:13:37;;;;;;;82.45;20.90;;;;;;;;;;5011056;28;20026;-49
2022/05/23 01:16:05;;;;;;;77.00;20.77;;;;;;;;;;4994492;28;20124;-54
2022/05/23 01:18:32;;;;;;;83.45;22.15;;;;;;;;;;5009452;28;20551;-51
2022/05/23 01:21:01;;;;;;;74.07;22.20;;;;;;;;;;5005148;28;20029;-51
2022/05/23 01:23:40;;;;;;;81.38;20.55;;;;;;;;;;5012048;28;20057;-55
2022/05/23 01:26:07;;;;;;;75.70;21.02;;;;;;;;;;5011577;28;20033;-50
2022/05/23 01:28:39;;;;;;;72.80;19.67;;;;;;;;;;5012563;28;20022;-53
2022/05/23 01:31:06;;;;;;;69.17;19.43;;;;;;;;;;5008029;28;20057;-51
2022/05/23 01:33:33;;;;;;;63.75;18.55;;;;;;;;;;5012198;28;20450;-47
2022/05/23 01:36:01;;;;;;;69.82;21.45;;;;;;;;;;5014391;28;20048;-45
2022/05/23 01:38:28;;;;;;;65.13;19.35;;;;;;;;;;4995709;28;20422;-46
2022/05/23 01:40:56;;;;;;;62.33;18.23;;;;;;;;;;4995175;28;20430;-46
2022/05/23 01:43:23;;;;;;;61.05;17.58;;;;;;;;;;5012755;28;20605;-52
2022/05/23 01:45:50;;;;;;;64.30;18.67;;;;;;;;;;5011826;28;20563;-46
2022/05/23 01:48:18;;;;;;;58.97;17.33;;;;;;;;;;5011631;28;20029;-56
2022/05/23 01:50:45;;;;;;;57.83;17.30;;;;;;;;;;5009756;28;20030;-51
2022/05/23 01:53:12;;;;;;;56.10;17.42;;;;;;;;;;5010732;28;20033;-55
2022/05/23 01:55:39;;;;;;;55.10;17.00;;;;;;;;;;5010816;28;20042;-50
2022/05/23 01:58:06;;;;;;;52.92;16.73;;;;;;;;;;5007095;28;20029;-49
2022/05/23 02:03:19;;;;;;;55.65;15.77;;;;;;;;;;5012952;28;20091;-52
2022/05/23 02:05:46;;;;;;;46.13;13.40;;;;;;;;;;5011334;28;20479;-51
2022/05/23 02:08:13;;;;;;;47.03;14.00;;;;;;;;;;5009881;28;20041;-46
2022/05/23 02:10:40;;;;;;;51.90;14.45;;;;;;;;;;5012695;28;20096;-46
2022/05/23 02:13:07;;;;;;;47.05;14.05;;;;;;;;;;5013330;28;20037;-46
2022/05/23 02:15:34;;;;;;;46.63;13.30;;;;;;;;;;5013266;28;20041;-55
2022/05/23 02:18:02;;;;;;;38.65;13.55;;;;;;;;;;5010950;28;20045;-46
2022/05/23 02:20:29;;;;;;;40.55;12.60;;;;;;;;;;5011687;28;20045;-50
2022/05/23 02:22:56;;;;;;;46.55;13.73;;;;;;;;;;5022934;28;20026;-48
2022/05/23 02:25:24;;;;;;;41.28;13.13;;;;;;;;;;5012868;28;20041;-48
2022/05/23 02:27:51;;;;;;;48.28;14.50;;;;;;;;;;5012702;28;20107;-52
2022/05/23 02:30:18;;;;;;;57.15;14.02;;;;;;;;;;5011892;28;20021;-51
2022/05/23 02:32:45;;;;;;;35.65;12.07;;;;;;;;;;5012156;28;20033;-53
2022/05/23 02:35:13;;;;;;;35.83;12.30;;;;;;;;;;4992250;28;20039;-47
2022/05/23 02:37:40;;;;;;;43.47;13.80;;;;;;;;;;4993051;28;20022;-50
2022/05/23 02:40:08;;;;;;;39.13;12.60;;;;;;;;;;4992537;28;20042;-52
2022/05/23 02:42:35;;;;;;;40.17;12.70;;;;;;;;;;4992464;28;20472;-50
2022/05/23 02:45:02;;;;;;;36.20;11.65;;;;;;;;;;4992682;28;20045;-50
2022/05/23 02:47:29;;;;;;;38.33;11.88;;;;;;;;;;4992006;28;20034;-47
2022/05/23 02:49:56;;;;;;;41.25;11.93;;;;;;;;;;4992468;28;20030;-50
2022/05/23 02:52:23;;;;;;;38.70;11.77;;;;;;;;;;4992243;28;20022;-51
2022/05/23 02:54:50;;;;;;;40.80;12.70;;;;;;;;;;4992646;28;20034;-50
2022/05/23 02:57:17;;;;;;;32.75;10.82;;;;;;;;;;4991665;28;20084;-52
2022/05/23 02:59:44;;;;;;;45.10;11.82;;;;;;;;;;4992282;28;20023;-48
2022/05/23 03:04:57;;;;;;;43.33;12.60;;;;;;;;;;4992443;28;20041;-49
2022/05/23 03:07:24;;;;;;;37.45;11.52;;;;;;;;;;4992623;28;20057;-50
2022/05/23 03:09:50;;;;;;;35.85;11.23;;;;;;;;;;4992320;28;20113;-48
2022/05/23 03:12:17;;;;;;;35.45;11.15;;;;;;;;;;4992267;28;20023;-53
2022/05/23 03:14:44;;;;;;;35.03;10.60;;;;;;;;;;4991988;28;20129;-48
2022/05/23 03:17:11;;;;;;;33.17;11.50;;;;;;;;;;4992827;28;20018;-49
2022/05/23 03:19:39;;;;;;;31.65;10.07;;;;;;;;;;4991612;28;20037;-50
2022/05/23 03:27:37;;;;;;;31.02;10.35;;;;;;;;;;4991994;28;20069;-55
2022/05/23 03:30:05;;;;;;;29.20;10.15;;;;;;;;;;4992425;28;20034;-47
2022/05/23 03:32:34;;;;;;;32.45;10.85;;;;;;;;;;4991577;28;20026;-50
2022/05/23 03:35:01;;;;;;;32.80;9.70;;;;;;;;;;5010384;28;20085;-45
2022/05/23 03:37:28;;;;;;;28.40;9.73;;;;;;;;;;5012082;28;20705;-47
2022/05/23 03:39:55;;;;;;;27.02;8.73;;;;;;;;;;5011912;28;20022;-52
2022/05/23 03:42:22;;;;;;;25.08;9.52;;;;;;;;;;4995634;28;20038;-46
2022/05/23 03:44:49;;;;;;;29.85;9.02;;;;;;;;;;4990510;28;20022;-45
2022/05/23 03:47:17;;;;;;;29.75;8.57;;;;;;;;;;4991467;28;20038;-44
2022/05/23 03:49:44;;;;;;;25.38;8.77;;;;;;;;;;4992408;28;20033;-46
2022/05/23 03:52:11;;;;;;;30.20;8.85;;;;;;;;;;4992184;28;20161;-50
2022/05/23 03:54:38;;;;;;;22.98;8.50;;;;;;;;;;4991804;28;20042;-47
2022/05/23 03:57:05;;;;;;;23.02;8.38;;;;;;;;;;4991304;28;20038;-48
2022/05/23 03:59:32;;;;;;;25.98;8.40;;;;;;;;;;4991941;28;20554;-49
2022/05/23 04:01:59;;;;;;;23.98;8.18;;;;;;;;;;4991719;28;20069;-45
2022/05/23 04:04:27;;;;;;;21.80;8.15;;;;;;;;;;4991577;28;20033;-51
2022/05/23 04:06:54;;;;;;;18.98;7.68;;;;;;;;;;4992107;28;20022;-48
2022/05/23 04:09:21;;;;;;;22.75;8.07;;;;;;;;;;4992348;28;20589;-47
2022/05/23 04:11:48;;;;;;;19.55;7.45;;;;;;;;;;4995431;28;20027;-47
2022/05/23 04:14:15;;;;;;;22.63;8.05;;;;;;;;;;4994757;28;20030;-49
2022/05/23 04:16:46;;;;;;;21.45;7.53;;;;;;;;;;4995455;28;20361;-49
2022/05/23 04:19:16;;;;;;;23.13;7.03;;;;;;;;;;4995169;28;20792;-46
2022/05/23 04:21:44;;;;;;;21.10;7.47;;;;;;;;;;4992712;28;20031;-48
2022/05/23 04:24:12;;;;;;;26.20;8.68;;;;;;;;;;4973952;28;20039;-50
2022/05/23 04:26:39;;;;;;;19.73;7.35;;;;;;;;;;4990718;28;20031;-49
2022/05/23 04:29:06;;;;;;;17.27;7.30;;;;;;;;;;4994441;28;20037;-47
2022/05/23 04:31:34;;;;;;;17.55;6.90;;;;;;;;;;4977834;28;20026;-53
2022/05/23 04:36:48;;;;;;;24.52;7.07;;;;;;;;;;5015121;28;20103;-53
2022/05/23 04:39:16;;;;;;;19.00;6.28;;;;;;;;;;5014351;28;20105;-47
2022/05/23 04:41:43;;;;;;;17.85;6.72;;;;;;;;;;5014219;28;20060;-49
2022/05/23 04:44:10;;;;;;;24.23;7.50;;;;;;;;;;4997159;28;20041;-51
2022/05/23 04:49:41;;;;;;;21.77;6.72;;;;;;;;;;5014200;28;20030;-53
2022/05/23 04:49:49;;;;;;;17.10;5.97;;;;;;;;;;5015532;28;20049;-55
2022/05/23 04:52:19;;;;;;;14.25;6.15;;;;;;;;;;5014009;28;20059;-47
2022/05/23 04:54:47;;;;;;;18.55;6.15;;;;;;;;;;5014484;28;20046;-55
2022/05/23 04:57:14;;;;;;;17.35;6.25;;;;;;;;;;5014319;28;20050;-47
2022/05/23 04:59:41;;;;;;;13.88;5.65;;;;;;;;;;5013710;28;20523;-52
2022/05/23 05:02:08;;;;;;;12.90;5.63;;;;;;;;;;5014497;28;20022;-53
2022/05/23 05:04:35;;;;;;;17.23;5.60;;;;;;;;;;4996248;28;20029;-47
2022/05/23 05:07:02;;;;;;;19.30;6.03;;;;;;;;;;5014181;28;20022;-50
2022/05/23 05:09:29;;;;;;;13.50;5.80;;;;;;;;;;5013901;28;20034;-52
2022/05/23 05:11:56;;;;;;;15.90;5.90;;;;;;;;;;5013461;28;20057;-54
2022/05/23 05:14:23;;;;;;;15.52;5.80;;;;;;;;;;5013265;28;20033;-52
2022/05/23 05:16:50;;;;;;;14.15;5.75;;;;;;;;;;5014271;28;20026;-47
2022/05/23 05:19:17;;;;;;;13.82;5.38;;;;;;;;;;5013967;28;20148;-51
2022/05/23 05:21:44;;;;;;;17.25;5.97;;;;;;;;;;5012700;28;20361;-51
2022/05/23 05:24:11;;;;;;;13.65;5.32;;;;;;;;;;5013445;28;20116;-47
2022/05/23 05:26:38;;;;;;;13.35;5.50;;;;;;;;;;5013606;28;20495;-49
2022/05/23 05:29:05;;;;;;;14.02;5.82;;;;;;;;;;5013520;28;20113;-55
2022/05/23 05:31:32;;;;;;;13.55;5.50;;;;;;;;;;5013071;28;20026;-49
2022/05/23 05:34:03;;;;;;;15.52;5.40;;;;;;;;;;5013455;28;20496;-52
2022/05/23 05:36:33;;;;;;;13.00;5.38;;;;;;;;;;5013425;28;20029;-52
2022/05/23 05:39:01;;;;;;;14.15;5.28;;;;;;;;;;5013262;28;20030;-50
2022/05/23 05:41:37;;;;;;;15.13;4.80;;;;;;;;;;5013804;28;20040;-50
2022/05/23 05:44:07;;;;;;;11.35;5.40;;;;;;;;;;5013791;28;20044;-47
2022/05/23 05:46:37;;;;;;;12.52;4.95;;;;;;;;;;5012690;28;20036;-50
2022/05/23 05:49:05;;;;;;;12.43;4.43;;;;;;;;;;5013604;28;20573;-46
2022/05/23 05:51:33;;;;;;;11.65;4.60;;;;;;;;;;5012961;28;20030;-52
2022/05/23 05:54:00;;;;;;;11.25;5.03;;;;;;;;;;4995557;28;20451;-49
2022/05/23 05:56:27;;;;;;;10.88;4.90;;;;;;;;;;5013386;28;20037;-50
2022/05/23 05:58:53;;;;;;;12.18;5.07;;;;;;;;;;5010262;28;20037;-45
2022/05/23 06:01:20;;;;;;;11.65;4.82;;;;;;;;;;5011042;28;20046;-46
2022/05/23 06:03:47;;;;;;;10.50;4.70;;;;;;;;;;5012895;28;20100;-45
2022/05/23 06:11:44;;;;;;;10.52;4.40;;;;;;;;;;5012425;28;20045;-45
2022/05/23 06:14:11;;;;;;;11.18;4.45;;;;;;;;;;5012126;28;20391;-44
2022/05/23 06:16:39;;;;;;;9.18;3.72;;;;;;;;;;5012893;28;20541;-48
2022/05/23 06:19:06;;;;;;;11.70;4.43;;;;;;;;;;5010550;28;20498;-46
2022/05/23 06:21:34;;;;;;;11.05;4.03;;;;;;;;;;5012037;28;20038;-51
2022/05/23 06:24:01;;;;;;;11.02;4.15;;;;;;;;;;5012995;28;20047;-45
2022/05/23 06:26:28;;;;;;;12.02;4.15;;;;;;;;;;5012012;28;20423;-49
2022/05/23 06:28:55;;;;;;;11.43;3.97;;;;;;;;;;5012017;28;20058;-47
2022/05/23 06:31:22;;;;;;;8.15;4.03;;;;;;;;;;5012835;28;20026;-49
2022/05/23 06:33:49;;;;;;;9.05;3.72;;;;;;;;;;5012403;28;20081;-47
2022/05/23 06:36:18;;;;;;;9.75;4.38;;;;;;;;;;5012320;28;20419;-47
2022/05/23 06:38:45;;;;;;;7.10;3.88;;;;;;;;;;5012272;28;20476;-48
2022/05/23 06:41:12;;;;;;;9.80;4.28;;;;;;;;;;5012112;28;20539;-54
2022/05/23 06:43:40;;;;;;;9.07;3.88;;;;;;;;;;5012372;28;20030;-51
2022/05/23 06:46:08;;;;;;;9.95;3.75;;;;;;;;;;5011937;28;20109;-45
2022/05/23 06:48:35;;;;;;;8.38;3.60;;;;;;;;;;4995944;28;20041;-45
2022/05/23 06:51:02;;;;;;;9.98;3.88;;;;;;;;;;5013591;28;20022;-46
2022/05/23 06:53:30;;;;;;;9.55;3.58;;;;;;;;;;5012933;28;20068;-48
2022/05/23 06:55:57;;;;;;;11.10;4.10;;;;;;;;;;5011956;28;20038;-46
2022/05/23 06:58:24;;;;;;;8.70;3.72;;;;;;;;;;5011989;28;20028;-53
2022/05/23 07:00:52;;;;;;;7.32;3.03;;;;;;;;;;5012315;28;20021;-50
2022/05/23 07:03:20;;;;;;;9.90;4.13;;;;;;;;;;5012081;28;20052;-45
2022/05/23 07:14:02;;;;;;;8.95;3.80;;;;;;;;;;5012365;28;20072;-45
2022/05/23 07:16:31;;;;;;;8.82;3.67;;;;;;;;;;5011377;28;20150;-48
2022/05/23 07:18:58;;;;;;;7.28;3.78;;;;;;;;;;5012022;28;20488;-47
2022/05/23 07:21:25;;;;;;;9.55;3.47;;;;;;;;;;5011334;28;20029;-48
2022/05/23 07:23:53;;;;;;;8.13;2.92;;;;;;;;;;5012231;28;20258;-46
2022/05/23 07:26:20;;;;;;;6.93;3.20;;;;;;;;;;5011496;28;20041;-47
2022/05/23 07:28:48;;;;;;;7.32;3.65;;;;;;;;;;5011333;28;20396;-47
2022/05/23 07:31:16;;;;;;;6.22;3.00;;;;;;;;;;5012030;28;20030;-46
2022/05/23 07:33:43;;;;;;;7.70;3.85;;;;;;;;;;5011421;28;20061;-45
2022/05/23 07:36:10;;;;;;;6.40;2.90;;;;;;;;;;4994106;28;20034;-45
2022/05/23 07:38:38;;;;;;;5.50;2.65;;;;;;;;;;5011804;28;20439;-48
2022/05/23 07:41:07;;;;;;;7.93;3.33;;;;;;;;;;5011589;28;20025;-52
2022/05/23 07:43:35;;;;;;;7.60;3.03;;;;;;;;;;5012023;28;20037;-46
2022/05/23 07:46:21;;;;;;;4.97;2.97;;;;;;;;;;5015081;28;20033;-46
2022/05/23 07:48:51;;;;;;;6.85;3.05;;;;;;;;;;5015517;28;20053;-48
2022/05/23 07:51:19;;;;;;;5.53;2.60;;;;;;;;;;5015682;28;20412;-45
2022/05/23 08:02:04;;;;;;;7.00;3.03;;;;;;;;;;5015672;28;20065;-46
2022/05/23 08:04:31;;;;;;;7.72;2.90;;;;;;;;;;5015396;28;20065;-45
2022/05/23 08:06:58;;;;;;;7.60;2.95;;;;;;;;;;5015015;28;20026;-44
2022/05/23 08:09:25;;;;;;;5.72;2.58;;;;;;;;;;5014962;28;20260;-45
2022/05/23 08:11:55;;;;;;;7.90;2.67;;;;;;;;;;5015226;28;20030;-47
2022/05/23 08:14:23;;;;;;;7.03;2.83;;;;;;;;;;5014770;28;20114;-48
2022/05/23 08:16:51;;;;;;;5.38;2.75;;;;;;;;;;5015327;28;20195;-47
2022/05/23 08:19:18;;;;;;;8.38;2.58;;;;;;;;;;5015028;28;20018;-45
2022/05/23 08:21:55;;;;;;;6.97;2.67;;;;;;;;;;4997160;28;20077;-45
2022/05/23 08:24:22;;;;;;;6.90;3.00;;;;;;;;;;5014539;28;20105;-45
2022/05/23 08:26:49;;;;;;;5.95;2.88;;;;;;;;;;5011917;28;20109;-49
2022/05/23 08:29:16;;;;;;;6.32;2.70;;;;;;;;;;5014791;28;20110;-52
2022/05/23 08:31:43;;;;;;;6.53;2.25;;;;;;;;;;5000168;28;20047;-50
2022/05/23 08:34:10;;;;;;;5.20;2.42;;;;;;;;;;5027222;28;20056;-48
2022/05/23 08:36:37;;;;;;;6.85;3.17;;;;;;;;;;5014429;28;20025;-48
2022/05/23 08:39:04;;;;;;;4.28;2.25;;;;;;;;;;5014680;28;20033;-50
2022/05/23 08:41:38;;;;;;;6.60;2.63;;;;;;;;;;5013952;28;20065;-50
2022/05/23 08:44:08;;;;;;;4.00;2.00;;;;;;;;;;5014395;28;20061;-50
2022/05/23 08:46:46;;;;;;;4.60;2.40;;;;;;;;;;5014294;28;20037;-45
2022/05/23 08:52:38;;;;;;;5.03;2.38;;;;;;;;;;5004033;28;20036;-50
2022/05/23 08:55:05;;;;;;;6.88;2.45;;;;;;;;;;5014519;28;20038;-47
2022/05/23 08:57:50;;;;;;;4.32;2.33;;;;;;;;;;5012796;28;20033;-46
2022/05/23 09:00:20;;;;;;;4.53;1.77;;;;;;;;;;5013724;28;20383;-48
2022/05/23 09:02:49;;;;;;;4.32;2.10;;;;;;;;;;4996460;28;20449;-50
2022/05/23 09:05:19;;;;;;;6.43;2.55;;;;;;;;;;5013316;28;20066;-52
2022/05/23 09:07:49;;;;;;;5.00;2.30;;;;;;;;;;5013997;28;20037;-50
2022/05/23 09:10:21;;;;;;;7.20;2.50;;;;;;;;;;5013859;28;20088;-55
2022/05/23 09:12:51;;;;;;;4.30;1.92;;;;;;;;;;5014162;28;20026;-47
2022/05/23 09:15:18;;;;;;;7.53;2.25;;;;;;;;;;5013843;28;20036;-51
2022/05/23 09:17:46;;;;;;;4.70;2.28;;;;;;;;;;5013290;28;20034;-50
2022/05/23 09:20:45;;;;;;;4.78;2.65;;;;;;;;;;5013213;28;20480;-51
2022/05/23 09:23:20;;;;;;;3.28;1.60;;;;;;;;;;4988595;28;20409;-51
2022/05/23 09:25:51;;;;;;;4.47;2.10;;;;;;;;;;5013223;28;20527;-46
2022/05/23 09:28:29;;;;;;;6.43;2.47;;;;;;;;;;5012140;28;20464;-50
2022/05/23 09:31:01;;;;;;;4.35;1.90;;;;;;;;;;5013775;28;20431;-50
2022/05/23 09:33:30;;;;;;;4.95;2.15;;;;;;;;;;5011791;28;20062;-48
2022/05/23 09:36:10;;;;;;;4.30;1.85;;;;;;;;;;5013027;28;20048;-50
2022/05/23 09:38:57;;;;;;;4.88;2.22;;;;;;;;;;5013188;28;20046;-47
2022/05/23 09:49:52;;;;;;;5.22;2.08;;;;;;;;;;5013312;28;20111;-45
2022/05/23 09:52:25;;;;;;;5.10;2.20;;;;;;;;;;4995643;28;20030;-44
2022/05/23 09:54:54;;;;;;;5.68;2.13;;;;;;;;;;5012695;28;20042;-47
2022/05/23 09:57:39;;;;;;;8.15;2.03;;;;;;;;;;5012872;28;20022;-47
2022/05/23 10:00:22;;;;;;;9.25;2.10;;;;;;;;;;5013064;28;20025;-48
2022/05/23 10:02:52;;;;;;;3.50;1.60;;;;;;;;;;5012681;28;20423;-46
2022/05/23 10:05:26;;;;;;;4.13;1.83;;;;;;;;;;5012902;28;20026;-45
2022/05/23 10:07:54;;;;;;;5.95;1.85;;;;;;;;;;5012797;28;20498;-49
2022/05/23 10:10:26;;;;;;;3.35;1.55;;;;;;;;;;5013119;28;20026;-46
2022/05/23 10:13:10;;;;;;;6.45;2.13;;;;;;;;;;5012550;28;20026;-50
2022/05/23 10:15:45;;;;;;;4.68;2.30;;;;;;;;;;4994894;28;20119;-45
2022/05/23 10:18:32;;;;;;;6.85;1.95;;;;;;;;;;5012887;28;20041;-47
2022/05/23 10:21:00;;;;;;;5.85;1.73;;;;;;;;;;5012164;28;20030;-45
2022/05/23 10:23:30;;;;;;;7.78;2.40;;;;;;;;;;5012746;28;20053;-45
2022/05/23 10:25:59;;;;;;;9.63;1.88;;;;;;;;;;5012340;28;20034;-47
2022/05/23 10:28:46;;;;;;;7.30;1.70;;;;;;;;;;5012701;28;20392;-46
2022/05/23 10:31:18;;;;;;;7.40;1.92;;;;;;;;;;5012479;28;20030;-48
2022/05/23 10:33:46;;;;;;;7.30;2.35;;;;;;;;;;5012021;28;20128;-47
2022/05/23 10:36:21;;;;;;;9.23;1.90;;;;;;;;;;5011847;28;20546;-44
2022/05/23 10:44:29;;;;;;;6.53;1.90;;;;;;;;;;5012312;28;20460;-46
2022/05/23 10:47:12;;;;;;;10.63;2.45;;;;;;;;;;5012488;28;20025;-45
2022/05/23 10:49:58;;;;;;;6.65;2.17;;;;;;;;;;5011549;28;20029;-45
2022/05/23 10:52:25;;;;;;;7.32;2.20;;;;;;;;;;5012355;28;20683;-50
2022/05/23 10:55:08;;;;;;;9.85;2.15;;;;;;;;;;5011865;28;20037;-45
2022/05/23 10:57:47;;;;;;;2.80;1.70;;;;;;;;;;5012462;28;20026;-48
2022/05/23 11:00:16;;;;;;;8.15;2.25;;;;;;;;;;5011416;28;20034;-45
2022/05/23 11:02:52;;;;;;;8.15;1.77;;;;;;;;;;5012362;28;20037;-47
2022/05/23 11:05:27;;;;;;;5.38;1.95;;;;;;;;;;5012269;28;20125;-48
2022/05/23 11:08:04;;;;;;;5.90;2.20;;;;;;;;;;5011705;28;20026;-45
2022/05/23 11:10:42;;;;;;;6.55;1.85;;;;;;;;;;5011531;28;20042;-44
2022/05/23 11:13:18;;;;;;;7.32;1.85;;;;;;;;;;5011664;28;20083;-48
2022/05/23 11:15:51;;;;;;;6.07;2.03;;;;;;;;;;5011803;28;20045;-47
2022/05/23 11:18:21;;;;;;;8.32;1.85;;;;;;;;;;5011551;28;20033;-46
2022/05/23 11:20:50;;;;;;;8.40;1.90;;;;;;;;;;5014752;28;20033;-45
2022/05/23 11:23:28;;;;;;;7.95;2.40;;;;;;;;;;5016215;28;20030;-45
2022/05/23 11:26:16;;;;;;;7.47;2.08;;;;;;;;;;5015435;28;20584;-44
2022/05/23 11:34:47;;;;;;;4.93;1.90;;;;;;;;;;4935161;29;20683;-45
2022/05/23 11:39:59;;;;;;;8.25;2.10;;;;;;;;;;5015583;28;20034;-46
2022/05/23 11:42:27;;;;;;;6.88;2.20;;;;;;;;;;5015645;28;20512;-47
2022/05/23 11:48:00;;;;;;;7.72;1.80;;;;;;;;;;5016181;28;20121;-44
2022/05/23 11:50:30;;;;;;;4.57;1.67;;;;;;;;;;5015936;28;20025;-45
2022/05/23 11:53:06;;;;;;;6.15;2.00;;;;;;;;;;5015362;28;20041;-46
2022/05/23 11:55:55;;;;;;;5.00;1.48;;;;;;;;;;5015362;28;20042;-47
2022/05/23 11:58:40;;;;;;;7.65;1.73;;;;;;;;;;5015047;28;20083;-45
2022/05/23 12:01:10;;;;;;;5.20;1.67;;;;;;;;;;5014438;28;20022;-47
2022/05/23 12:03:54;;;;;;;9.65;2.35;;;;;;;;;;5015253;28;20569;-48
2022/05/23 12:06:21;;;;;;;16.05;2.03;;;;;;;;;;5014128;28;20104;-53
2022/05/23 12:09:07;;;;;;;5.90;1.98;;;;;;;;;;5011978;28;20037;-54
2022/05/23 12:11:38;;;;;;;11.98;2.35;;;;;;;;;;5011105;28;20044;-49
2022/05/23 12:14:18;;;;;;;9.55;2.05;;;;;;;;;;5008168;28;20129;-45
2022/05/23 12:16:45;;;;;;;14.30;2.28;;;;;;;;;;5007592;28;20151;-49
2022/05/23 12:19:14;;;;;;;7.53;1.70;;;;;;;;;;5011877;28;20056;-46
2022/05/23 12:21:46;;;;;;;10.60;1.83;;;;;;;;;;5011213;28;20057;-49
2022/05/23 12:24:25;;;;;;;11.90;1.90;;;;;;;;;;5012349;28;20045;-52
2022/05/23 12:26:55;;;;;;;10.75;1.67;;;;;;;;;;5013031;28;20053;-45
2022/05/23 12:29:25;;;;;;;11.15;2.08;;;;;;;;;;5013743;28;20400;-48
2022/05/23 12:32:11;;;;;;;12.15;2.33;;;;;;;;;;5013803;28;20387;-46
2022/05/23 12:34:42;;;;;;;11.07;1.95;;;;;;;;;;5012752;28;20054;-50
2022/05/23 12:37:22;;;;;;;7.80;1.60;;;;;;;;;;5013569;28;20041;-46
2022/05/23 12:39:49;;;;;;;7.30;2.00;;;;;;;;;;5012302;28;20034;-47
2022/05/23 12:42:19;;;;;;;12.35;1.90;;;;;;;;;;5011916;28;20893;-48
2022/05/23 12:44:59;;;;;;;13.02;1.98;;;;;;;;;;5013482;28;20119;-49
2022/05/23 12:47:47;;;;;;;16.35;1.90;;;;;;;;;;5014586;28;20033;-49
2022/05/23 12:50:14;;;;;;;8.02;1.63;;;;;;;;;;4996410;28;20033;-51
2022/05/23 12:52:56;;;;;;;12.13;2.22;;;;;;;;;;5014428;28;20037;-47
2022/05/23 12:56:03;;;;;;;8.65;2.30;;;;;;;;;;5007921;28;20030;-47
2022/05/23 12:58:48;;;;;;;15.93;2.65;;;;;;;;;;4931405;29;20147;-46
2022/05/23 13:01:18;;;;;;;12.32;2.00;;;;;;;;;;4931300;29;20075;-46
2022/05/23 13:03:57;;;;;;;11.88;2.05;;;;;;;;;;4985765;28;20496;-48
2022/05/23 13:06:50;;;;;;;7.03;1.80;;;;;;;;;;4995409;28;20045;-50
2022/05/23 14:21:33;;;;;;;19.52;2.95;;;;;;;;;;5008144;23;20689;-51
2022/05/23 14:24:02;;;;;;;27.08;3.35;;;;;;;;;;4989217;28;20030;-55
2022/05/23 14:26:29;;;;;;;17.85;2.60;;;;;;;;;;4991351;28;20038;-50
2022/05/23 14:28:57;;;;;;;18.88;2.40;;;;;;;;;;4990682;28;20030;-46
2022/05/23 14:31:46;;;;;;;36.60;3.67;;;;;;;;;;4991649;28;20037;-46
2022/05/23 14:34:21;;;;;;;23.05;2.92;;;;;;;;;;4990584;28;20038;-48
2022/05/23 14:36:56;;;;;;;19.52;2.55;;;;;;;;;;4990901;28;20030;-52
2022/05/23 14:39:26;;;;;;;23.65;2.70;;;;;;;;;;4990623;28;20080;-47
2022/05/23 14:41:53;;;;;;;26.98;2.95;;;;;;;;;;4990984;28;20054;-45
2022/05/23 14:44:20;;;;;;;19.85;2.83;;;;;;;;;;4990870;28;20447;-48
2022/05/23 14:47:07;;;;;;;28.13;2.60;;;;;;;;;;4976535;28;20043;-52
2022/05/23 14:49:56;;;;;;;21.10;2.53;;;;;;;;;;4980326;28;20034;-51
2022/05/23 14:52:24;;;;;;;18.25;2.80;;;;;;;;;;4980876;28;20022;-55
2022/05/23 15:00:44;;;;;;;18.80;2.53;;;;;;;;;;4983664;28;21228;-47
2022/05/23 15:03:14;;;;;;;21.58;2.53;;;;;;;;;;4971416;28;20397;-55
2022/05/23 15:05:41;;;;;;;14.73;2.67;;;;;;;;;;4970780;28;20034;-45
2022/05/23 15:08:08;;;;;;;20.38;2.92;;;;;;;;;;4975267;28;20118;-47
2022/05/23 15:10:35;;;;;;;29.60;3.53;;;;;;;;;;4972722;28;20065;-54
2022/05/23 15:13:02;;;;;;;25.23;3.15;;;;;;;;;;4970585;28;20019;-49
2022/05/23 15:15:29;;;;;;;22.13;4.03;;;;;;;;;;4954221;28;20658;-51
2022/05/23 15:17:57;;;;;;;30.45;5.15;;;;;;;;;;4987261;28;20105;-47
2022/05/23 15:20:25;;;;;;;45.08;9.50;;;;;;;;;;4990179;28;20053;-46
2022/05/23 15:22:53;;;;;;;82.05;17.42;;;;;;;;;;4977842;28;20142;-49
2022/05/23 15:25:20;;;;;;;95.93;23.50;;;;;;;;;;4970632;28;20031;-48
2022/05/23 15:27:47;;;;;;;103.65;23.30;;;;;;;;;;4971164;28;20780;-45
2022/05/23 15:30:16;;;;;;;109.57;26.05;;;;;;;;;;4971741;28;20035;-45
2022/05/23 15:32:44;;;;;;;120.35;26.25;;;;;;;;;;4971165;28;20035;-50
2022/05/23 15:35:13;;;;;;;130.27;29.17;;;;;;;;;;4971120;28;20428;-49
2022/05/23 15:37:40;;;;;;;130.73;28.58;;;;;;;;;;4971486;28;20042;-47
2022/05/23 15:40:08;;;;;;;134.00;29.60;;;;;;;;;;4989807;28;20038;-52
2022/05/23 15:42:35;;;;;;;143.90;33.22;;;;;;;;;;4990531;28;20484;-51
2022/05/23 15:45:09;;;;;;;136.45;32.20;;;;;;;;;;4989483;28;20038;-48
2022/05/23 15:47:36;;;;;;;136.82;33.10;;;;;;;;;;4979424;28;20058;-46
2022/05/23 15:50:04;;;;;;;136.70;33.35;;;;;;;;;;4969886;28;20433;-47
2022/05/23 15:52:31;;;;;;;137.68;32.50;;;;;;;;;;4970799;28;20440;-50
2022/05/23 15:54:58;;;;;;;137.43;32.15;;;;;;;;;;4970770;28;20037;-53
2022/05/23 15:57:49;;;;;;;149.48;33.90;;;;;;;;;;4973460;28;20054;-55
2022/05/23 16:00:18;;;;;;;141.57;34.97;;;;;;;;;;4975979;28;20085;-51
2022/05/23 16:02:45;;;;;;;123.70;32.42;;;;;;;;;;4971653;28;20054;-45
2022/05/23 16:05:13;;;;;;;138.63;35.75;;;;;;;;;;4988319;28;20037;-45
2022/05/23 16:07:40;;;;;;;128.00;30.55;;;;;;;;;;4988577;28;20031;-50
2022/05/23 16:10:08;;;;;;;138.13;32.63;;;;;;;;;;4977858;28;20039;-49
2022/05/23 16:12:37;;;;;;;118.88;28.55;;;;;;;;;;4973873;28;20027;-51
2022/05/23 16:15:06;;;;;;;118.80;28.70;;;;;;;;;;4977566;28;20034;-52
2022/05/23 16:17:35;;;;;;;116.40;27.90;;;;;;;;;;4977939;28;20050;-49
2022/05/23 16:20:01;;;;;;;117.72;28.05;;;;;;;;;;4977868;28;20042;-56
2022/05/23 16:22:29;;;;;;;131.85;30.70;;;;;;;;;;4973598;28;20051;-51
2022/05/23 16:24:56;;;;;;;113.97;28.95;;;;;;;;;;4979012;28;20035;-45
2022/05/23 16:27:23;;;;;;;86.93;24.65;;;;;;;;;;4956251;28;20550;-49
2022/05/23 16:29:50;;;;;;;104.82;26.85;;;;;;;;;;4974173;28;20027;-52
2022/05/23 16:37:47;;;;;;;88.07;24.88;;;;;;;;;;4974074;28;20049;-46
2022/05/23 16:40:14;;;;;;;91.53;24.40;;;;;;;;;;4955455;28;20420;-50
2022/05/23 16:42:41;;;;;;;92.65;24.80;;;;;;;;;;4972750;28;20076;-52
2022/05/23 16:45:08;;;;;;;93.18;24.67;;;;;;;;;;4973603;28;20448;-55
2022/05/23 16:47:35;;;;;;;83.68;22.95;;;;;;;;;;4956798;28;20388;-50
2022/05/23 16:50:02;;;;;;;106.72;22.77;;;;;;;;;;4972762;28;20392;-54
2022/05/23 16:52:29;;;;;;;81.82;22.30;;;;;;;;;;4972891;28;20404;-50
2022/05/23 16:54:56;;;;;;;78.05;20.23;;;;;;;;;;4975754;28;20392;-46
2022/05/23 16:57:23;;;;;;;76.95;22.17;;;;;;;;;;4992576;28;20400;-52
2022/05/23 16:59:50;;;;;;;82.22;23.05;;;;;;;;;;4992234;28;20447;-52
2022/05/23 17:02:19;;;;;;;75.47;21.58;;;;;;;;;;4992602;28;20392;-47
2022/05/23 17:04:46;;;;;;;77.63;20.40;;;;;;;;;;4991895;28;20039;-50
2022/05/23 17:07:13;;;;;;;82.68;21.15;;;;;;;;;;4993009;28;20112;-45
2022/05/23 17:09:40;;;;;;;85.63;22.40;;;;;;;;;;4993382;28;20052;-50
2022/05/23 17:12:08;;;;;;;74.35;20.13;;;;;;;;;;4991793;28;20577;-52
2022/05/23 17:14:35;;;;;;;71.63;20.45;;;;;;;;;;4991652;28;20034;-48
2022/05/23 17:17:02;;;;;;;74.10;20.80;;;;;;;;;;4991871;28;20050;-47
2022/05/23 17:19:30;;;;;;;76.32;19.70;;;;;;;;;;4991648;28;20093;-53